Time;durP1;ratioP1;P1;durP2;ratioP2;P2;SDS_P1;SDS_P2;PMS_P1;PMS_P2;Temp;Humidity;BMP_temperature;BMP_pressure;BME280_temperature;BME280_humidity;BME280_pressure;Samples;Min_cycle;Max_cycle;Signal;HPM_P1;HPM_P2
2022/05/19 00:02:21;;;;;;;10.03;4.00;;;20.80;99.90;;;;;;5019570;28;20537;-76
2022/05/19 00:04:48;;;;;;;3.87;3.37;;;20.80;99.90;;;;;;5011718;28;20504;-76
2022/05/19 00:07:17;;;;;;;6.10;4.37;;;20.90;99.90;;;;;;5016449;28;20536;-77
2022/05/19 00:09:44;;;;;;;5.27;4.77;;;20.90;99.90;;;;;;5021653;28;20553;-76
2022/05/19 00:12:14;;;;;;;6.27;4.83;;;20.90;99.90;;;;;;5014954;28;20466;-77
2022/05/19 00:14:40;;;;;;;5.40;4.47;;;20.80;99.90;;;;;;5021323;28;20489;-77
2022/05/19 00:17:08;;;;;;;5.77;4.97;;;20.80;99.90;;;;;;5022876;28;20511;-77
2022/05/19 00:19:34;;;;;;;5.20;4.10;;;20.80;99.90;;;;;;5019369;28;20517;-77
2022/05/19 00:22:01;;;;;;;5.23;4.73;;;20.70;99.90;;;;;;5006255;28;20459;-76
2022/05/19 00:24:31;;;;;;;5.30;4.90;;;20.70;99.90;;;;;;5006608;28;21019;-76
2022/05/19 00:26:57;;;;;;;7.93;4.17;;;20.50;99.90;;;;;;5015115;28;20859;-77
2022/05/19 00:29:24;;;;;;;4.90;4.40;;;20.70;99.90;;;;;;5015959;28;20592;-76
2022/05/19 00:31:51;;;;;;;4.40;4.00;;;20.80;99.90;;;;;;5013352;28;20474;-76
2022/05/19 00:34:18;;;;;;;5.37;4.37;;;20.80;99.90;;;;;;5000795;28;21017;-78
2022/05/19 00:36:46;;;;;;;6.33;3.90;;;20.70;99.90;;;;;;4999293;28;20496;-78
2022/05/19 00:39:13;;;;;;;12.23;5.67;;;20.60;99.90;;;;;;4991947;28;20910;-78
2022/05/19 00:41:46;;;;;;;4.40;4.00;;;20.60;99.90;;;;;;4998298;28;20528;-78
2022/05/19 00:44:13;;;;;;;4.60;3.70;;;20.60;99.90;;;;;;5001127;28;20463;-77
2022/05/19 00:46:46;;;;;;;4.23;3.80;;;20.70;99.90;;;;;;5006347;28;20465;-78
2022/05/19 00:49:16;;;;;;;6.03;4.07;;;20.70;99.90;;;;;;5000772;28;20499;-77
2022/05/19 00:51:48;;;;;;;5.77;5.30;;;20.60;99.90;;;;;;5006786;28;21760;-77
2022/05/19 00:54:18;;;;;;;4.60;3.87;;;20.50;99.90;;;;;;4996973;28;20490;-76
2022/05/19 00:56:51;;;;;;;3.73;3.43;;;20.50;99.90;;;;;;4986383;28;20521;-77
2022/05/19 00:59:25;;;;;;;5.97;4.50;;;20.50;99.90;;;;;;4984104;28;21518;-77
2022/05/19 01:01:55;;;;;;;8.07;5.33;;;20.60;99.90;;;;;;4988249;28;20598;-77
2022/05/19 01:04:27;;;;;;;5.23;4.57;;;20.50;99.90;;;;;;4986641;28;20488;-77
2022/05/19 01:06:59;;;;;;;4.37;3.97;;;20.50;99.90;;;;;;4996394;28;20503;-78
2022/05/19 01:09:25;;;;;;;9.20;4.60;;;20.40;99.90;;;;;;5021962;28;20478;-77
2022/05/19 01:11:55;;;;;;;5.10;4.50;;;20.30;99.90;;;;;;5019023;28;20510;-76
2022/05/19 01:14:23;;;;;;;4.60;3.70;;;20.40;99.90;;;;;;4985251;28;22151;-76
2022/05/19 01:16:50;;;;;;;6.87;4.43;;;20.50;99.90;;;;;;4989726;28;20567;-77
2022/05/19 01:19:24;;;;;;;10.93;3.83;;;20.50;99.90;;;;;;4985410;28;20464;-77
2022/05/19 01:21:55;;;;;;;15.70;4.07;;;20.50;99.90;;;;;;4993922;28;20568;-77
2022/05/19 01:24:30;;;;;;;3.43;3.00;;;20.50;99.90;;;;;;4993793;28;21185;-77
2022/05/19 01:26:59;;;;;;;4.37;3.97;;;20.40;99.90;;;;;;4986727;28;20590;-77
2022/05/19 01:29:28;;;;;;;5.17;4.17;;;20.40;99.90;;;;;;4981157;28;20491;-78
2022/05/19 01:31:57;;;;;;;5.13;4.30;;;20.30;99.90;;;;;;4979459;28;21332;-77
2022/05/19 01:34:27;;;;;;;6.90;4.90;;;20.10;99.90;;;;;;4984147;28;20475;-78
2022/05/19 01:36:54;;;;;;;7.87;4.00;;;20.00;99.90;;;;;;4989627;28;20544;-77
2022/05/19 01:39:23;;;;;;;5.47;4.83;;;20.10;99.90;;;;;;4981161;28;21069;-78
2022/05/19 01:42:04;;;;;;;9.50;4.23;;;20.00;99.90;;;;;;4991637;28;20922;-78
2022/05/19 01:44:41;;;;;;;5.33;3.87;;;20.00;99.90;;;;;;4986595;28;20487;-77
2022/05/19 01:47:13;;;;;;;8.40;4.07;;;19.90;99.90;;;;;;4987608;28;20468;-76
2022/05/19 01:49:48;;;;;;;3.93;3.57;;;19.90;99.90;;;;;;4987618;28;20582;-77
2022/05/19 01:52:23;;;;;;;5.20;4.20;;;19.80;99.90;;;;;;5001523;28;20975;-76
2022/05/19 01:55:00;;;;;;;4.80;4.00;;;19.80;99.90;;;;;;5018332;28;20549;-77
2022/05/19 01:57:32;;;;;;;4.50;3.53;;;19.70;99.90;;;;;;4999792;28;20471;-76
2022/05/19 02:00:05;;;;;;;6.50;4.10;;;19.70;99.90;;;;;;4987987;28;20681;-76
2022/05/19 02:02:40;;;;;;;6.40;3.97;;;19.70;99.90;;;;;;4994205;28;21030;-77
2022/05/19 02:05:18;;;;;;;5.07;4.30;;;19.80;99.90;;;;;;5000425;28;20496;-77
2022/05/19 02:07:47;;;;;;;4.97;4.47;;;19.90;99.90;;;;;;5018695;28;20711;-77
2022/05/19 02:10:17;;;;;;;4.43;4.03;;;19.90;99.90;;;;;;5021229;28;20485;-77
2022/05/19 02:12:47;;;;;;;5.60;4.97;;;19.80;99.90;;;;;;5050938;22;20429;-75
2022/05/19 02:15:17;;;;;;;4.23;3.53;;;19.70;99.90;;;;;;5036310;28;20464;-76
2022/05/19 02:17:45;;;;;;;3.57;3.27;;;19.70;99.90;;;;;;5040324;28;20463;-76
2022/05/19 02:20:14;;;;;;;5.30;4.80;;;19.70;99.90;;;;;;5035560;28;20454;-76
2022/05/19 02:22:46;;;;;;;5.10;4.43;;;19.50;99.90;;;;;;5039304;28;20459;-76
2022/05/19 02:25:17;;;;;;;4.13;3.73;;;19.40;99.90;;;;;;5037660;28;20470;-76
2022/05/19 02:27:51;;;;;;;4.03;3.63;;;19.30;99.90;;;;;;5039561;28;21339;-76
2022/05/19 02:30:23;;;;;;;5.50;4.33;;;19.30;99.90;;;;;;5036774;28;20536;-76
2022/05/19 02:32:50;;;;;;;5.03;3.77;;;19.20;99.90;;;;;;5032547;28;20484;-76
2022/05/19 02:35:22;;;;;;;4.47;3.90;;;19.20;99.90;;;;;;5036790;28;20470;-76
2022/05/19 02:37:48;;;;;;;7.50;4.40;;;19.20;99.90;;;;;;5036182;28;20477;-76
2022/05/19 02:40:17;;;;;;;3.77;3.47;;;19.20;99.90;;;;;;5038319;28;21216;-77
2022/05/19 02:42:46;;;;;;;6.33;3.67;;;19.30;99.90;;;;;;5043616;28;21278;-76
2022/05/19 02:45:14;;;;;;;5.03;4.63;;;19.40;99.90;;;;;;5037571;28;20472;-76
2022/05/19 02:47:41;;;;;;;4.27;3.87;;;19.30;99.90;;;;;;5032428;28;20565;-76
2022/05/19 02:50:11;;;;;;;4.73;3.60;;;19.20;99.90;;;;;;5033584;28;20490;-76
2022/05/19 02:52:38;;;;;;;4.80;4.13;;;19.20;99.90;;;;;;5038350;28;20465;-76
2022/05/19 02:55:06;;;;;;;5.40;4.17;;;19.30;99.90;;;;;;5043357;28;21154;-76
2022/05/19 02:57:33;;;;;;;8.83;3.53;;;19.30;99.90;;;;;;5030570;28;20888;-76
2022/05/19 03:00:01;;;;;;;4.90;3.70;;;19.40;99.90;;;;;;5030479;28;20501;-76
2022/05/19 03:02:28;;;;;;;5.60;3.80;;;19.50;99.90;;;;;;5028486;28;20544;-76
2022/05/19 03:04:55;;;;;;;4.07;3.13;;;19.50;99.90;;;;;;5029756;28;20494;-76
2022/05/19 03:07:24;;;;;;;8.23;3.27;;;19.50;99.90;;;;;;5034221;28;20461;-76
2022/05/19 03:09:51;;;;;;;4.43;2.97;;;19.70;99.90;;;;;;5034091;28;20549;-76
2022/05/19 03:12:18;;;;;;;5.07;3.20;;;19.90;99.90;;;;;;5033592;28;20454;-76
2022/05/19 03:14:51;;;;;;;6.00;3.30;;;20.20;99.90;;;;;;5039930;28;20505;-75
2022/05/19 03:17:19;;;;;;;4.20;2.80;;;20.30;99.90;;;;;;5036564;28;20962;-75
2022/05/19 03:19:45;;;;;;;5.40;2.70;;;20.50;99.90;;;;;;5033123;28;20480;-76
2022/05/19 03:22:12;;;;;;;3.87;2.27;;;20.70;99.90;;;;;;5031211;28;20790;-75
2022/05/19 03:24:39;;;;;;;3.47;3.17;;;20.90;99.90;;;;;;5038282;28;20506;-75
2022/05/19 03:27:06;;;;;;;2.87;2.30;;;21.20;99.90;;;;;;5025520;28;20471;-75
2022/05/19 03:29:33;;;;;;;3.53;2.93;;;21.50;99.90;;;;;;5028354;28;20467;-76
2022/05/19 03:32:00;;;;;;;8.43;4.30;;;21.50;99.90;;;;;;5027147;28;20489;-75
2022/05/19 03:34:28;;;;;;;6.67;5.67;;;21.60;99.90;;;;;;5012915;28;21014;-75
2022/05/19 03:36:55;;;;;;;2.40;2.13;;;21.70;99.90;;;;;;5026743;28;20485;-76
2022/05/19 03:39:22;;;;;;;9.03;2.77;;;21.60;99.90;;;;;;5030890;28;20525;-76
2022/05/19 03:41:49;;;;;;;4.47;2.40;;;21.60;99.90;;;;;;5027311;28;20466;-75
2022/05/19 03:44:15;;;;;;;5.90;3.03;;;21.70;99.90;;;;;;5028207;28;20482;-75
2022/05/19 03:46:42;;;;;;;3.33;3.03;;;21.70;99.90;;;;;;5035474;28;20466;-76
2022/05/19 03:49:09;;;;;;;3.30;2.87;;;21.70;99.90;;;;;;5039955;28;20458;-76
2022/05/19 03:51:37;;;;;;;7.30;3.07;;;21.60;99.90;;;;;;5041706;28;20490;-75
2022/05/19 03:54:04;;;;;;;6.20;3.40;;;21.60;99.90;;;;;;5045664;28;20490;-75
2022/05/19 03:56:30;;;;;;;2.93;2.63;;;21.50;99.90;;;;;;5034728;28;20461;-76
2022/05/19 03:58:57;;;;;;;4.00;2.47;;;21.40;99.90;;;;;;5037536;28;20520;-76
2022/05/19 04:01:24;;;;;;;3.80;2.50;;;21.30;99.90;;;;;;5044390;28;20499;-78
2022/05/19 04:03:51;;;;;;;4.93;2.60;;;21.20;99.90;;;;;;5038917;28;20527;-81
2022/05/19 04:06:18;;;;;;;5.90;2.70;;;21.10;99.90;;;;;;5029803;28;20461;-78
2022/05/19 04:08:47;;;;;;;3.43;2.70;;;21.10;99.90;;;;;;5029303;28;20461;-76
2022/05/19 04:11:14;;;;;;;3.33;2.87;;;21.10;99.90;;;;;;5028157;28;20488;-75
2022/05/19 04:13:41;;;;;;;8.80;3.00;;;21.20;99.90;;;;;;5032516;28;20498;-76
2022/05/19 04:16:08;;;;;;;3.00;2.37;;;21.20;99.90;;;;;;5031830;28;20462;-76
2022/05/19 04:18:35;;;;;;;2.90;2.60;;;21.20;99.90;;;;;;5035877;28;20463;-77
2022/05/19 04:21:02;;;;;;;5.93;3.33;;;21.20;99.90;;;;;;5029286;28;20986;-77
2022/05/19 04:23:29;;;;;;;4.63;2.93;;;21.20;99.90;;;;;;5039387;28;20474;-77
2022/05/19 04:25:57;;;;;;;6.03;2.63;;;21.10;99.90;;;;;;5037586;28;20842;-77
2022/05/19 04:28:24;;;;;;;4.97;2.80;;;21.10;99.90;;;;;;5030975;28;20604;-77
2022/05/19 04:30:51;;;;;;;3.30;3.00;;;21.20;99.90;;;;;;5035624;28;20516;-77
2022/05/19 04:33:18;;;;;;;3.27;2.87;;;21.30;99.90;;;;;;5027171;28;20562;-77
2022/05/19 04:35:44;;;;;;;2.77;2.30;;;21.30;99.90;;;;;;5032457;28;20516;-77
2022/05/19 04:38:13;;;;;;;3.20;2.83;;;21.20;99.90;;;;;;5044616;28;21095;-77
2022/05/19 04:40:42;;;;;;;4.83;3.50;;;21.20;99.90;;;;;;5041247;28;20465;-77
2022/05/19 04:43:11;;;;;;;4.00;2.63;;;21.20;99.90;;;;;;5040830;28;20479;-77
2022/05/19 04:45:37;;;;;;;4.77;3.10;;;21.30;99.90;;;;;;5041102;28;20521;-77
2022/05/19 04:48:04;;;;;;;6.73;3.10;;;21.40;99.90;;;;;;5041833;28;20455;-77
2022/05/19 04:50:31;;;;;;;4.00;3.40;;;21.50;99.90;;;;;;5039421;28;20914;-77
2022/05/19 04:52:59;;;;;;;3.97;3.13;;;21.50;99.90;;;;;;5040118;28;20481;-76
2022/05/19 04:55:26;;;;;;;7.33;3.90;;;21.50;99.90;;;;;;5043361;28;20573;-77
2022/05/19 04:57:53;;;;;;;5.43;3.40;;;21.60;99.90;;;;;;5045936;28;21098;-77
2022/05/19 05:00:22;;;;;;;6.60;4.00;;;21.90;99.90;;;;;;5037075;28;21382;-77
2022/05/19 05:02:49;;;;;;;10.23;3.60;;;22.20;99.90;;;;;;5045193;28;20902;-77
2022/05/19 05:05:16;;;;;;;5.50;3.60;;;22.50;99.90;;;;;;5043882;28;20943;-77
2022/05/19 05:07:42;;;;;;;8.97;3.73;;;22.80;99.90;;;;;;5037018;28;20557;-77
2022/05/19 05:10:10;;;;;;;8.07;3.80;;;23.20;99.90;;;;;;5044314;28;20466;-77
2022/05/19 05:12:36;;;;;;;3.63;3.10;;;23.50;99.90;;;;;;5043418;28;20525;-75
2022/05/19 05:15:04;;;;;;;8.43;3.60;;;23.60;99.90;;;;;;5041203;28;20470;-75
2022/05/19 05:17:32;;;;;;;9.93;3.93;;;23.80;99.90;;;;;;5040868;28;20475;-77
2022/05/19 05:19:59;;;;;;;4.27;2.60;;;24.00;99.90;;;;;;5045333;28;20474;-77
2022/05/19 05:22:25;;;;;;;8.07;3.87;;;24.00;99.90;;;;;;5043312;28;20463;-77
2022/05/19 05:24:52;;;;;;;8.90;3.43;;;23.90;99.90;;;;;;5044793;28;20516;-76
2022/05/19 05:27:19;;;;;;;5.40;3.03;;;23.90;99.90;;;;;;5042272;28;20528;-77
2022/05/19 05:29:45;;;;;;;8.20;3.37;;;24.10;99.90;;;;;;5040672;28;20466;-77
2022/05/19 05:32:12;;;;;;;4.20;3.50;;;24.40;99.90;;;;;;5036759;28;21031;-77
2022/05/19 05:34:40;;;;;;;5.80;4.07;;;24.50;99.90;;;;;;5045000;28;20465;-76
2022/05/19 05:37:07;;;;;;;4.10;3.47;;;24.40;99.90;;;;;;5043948;28;20513;-77
2022/05/19 05:39:34;;;;;;;6.00;3.80;;;24.60;99.90;;;;;;5036422;28;20481;-76
2022/05/19 05:42:01;;;;;;;3.10;2.80;;;25.00;99.90;;;;;;5040150;28;20558;-77
2022/05/19 05:44:28;;;;;;;7.30;3.70;;;24.90;99.90;;;;;;5043705;28;20498;-77
2022/05/19 05:46:54;;;;;;;7.20;3.07;;;25.00;99.90;;;;;;5044999;28;20455;-76
2022/05/19 05:49:21;;;;;;;4.10;2.47;;;24.90;99.90;;;;;;5040837;28;20481;-77
2022/05/19 05:51:49;;;;;;;6.80;3.10;;;24.70;99.90;;;;;;5043265;28;20847;-77
2022/05/19 05:54:16;;;;;;;4.60;3.27;;;24.70;99.90;;;;;;5040444;28;20540;-76
2022/05/19 05:56:43;;;;;;;5.43;2.50;;;24.40;99.90;;;;;;5038327;28;20836;-76
2022/05/19 05:59:10;;;;;;;3.30;2.43;;;24.00;99.90;;;;;;5044132;28;20540;-77
2022/05/19 06:01:37;;;;;;;3.43;2.70;;;23.70;99.90;;;;;;5037498;28;20463;-76
2022/05/19 06:04:03;;;;;;;3.60;2.20;;;23.50;99.90;;;;;;5043744;28;20478;-76
2022/05/19 06:06:30;;;;;;;3.73;2.90;;;23.50;99.90;;;;;;5039692;28;20463;-76
2022/05/19 06:08:58;;;;;;;3.30;3.00;;;23.40;99.90;;;;;;5043113;28;20471;-76
2022/05/19 06:11:25;;;;;;;7.83;3.50;;;23.30;99.90;;;;;;5041657;28;20480;-77
2022/05/19 06:13:52;;;;;;;4.33;2.80;;;23.50;99.90;;;;;;5039910;28;20991;-76
2022/05/19 06:16:19;;;;;;;3.73;2.50;;;23.30;99.90;;;;;;5042494;28;20952;-76
2022/05/19 06:18:46;;;;;;;4.33;2.70;;;23.40;99.90;;;;;;5043112;28;20850;-76
2022/05/19 06:21:12;;;;;;;5.63;2.70;;;23.70;99.90;;;;;;5041425;28;20490;-76
2022/05/19 06:23:39;;;;;;;5.67;2.77;;;24.10;99.90;;;;;;5038584;28;20532;-76
2022/05/19 06:26:08;;;;;;;4.93;2.90;;;24.60;99.90;;;;;;5044535;28;20507;-77
2022/05/19 06:28:35;;;;;;;4.40;3.20;;;25.20;99.90;;;;;;5043351;28;20466;-76
2022/05/19 06:31:02;;;;;;;5.07;3.23;;;25.60;99.90;;;;;;5035009;28;20486;-77
2022/05/19 06:33:35;;;;;;;3.27;2.73;;;25.70;99.90;;;;;;5034256;28;20570;-76
2022/05/19 06:36:03;;;;;;;3.33;2.80;;;25.60;99.90;;;;;;5039106;28;20976;-76
2022/05/19 06:38:31;;;;;;;3.97;2.50;;;25.80;99.90;;;;;;5039320;28;20541;-77
2022/05/19 06:42:00;;;;;;;4.00;3.30;;;26.10;99.90;;;;;;5035412;28;20459;-77
2022/05/19 06:43:47;;;;;;;9.17;4.00;;;26.70;99.90;;;;;;5043079;28;21011;-77
2022/05/19 06:46:14;;;;;;;4.97;3.07;;;27.60;99.90;;;;;;5040299;28;20484;-77
2022/05/19 06:48:41;;;;;;;4.63;2.33;;;27.60;99.90;;;;;;5035094;28;20489;-76
2022/05/19 06:51:07;;;;;;;5.17;3.47;;;27.70;99.90;;;;;;5040171;28;20971;-76
2022/05/19 06:53:34;;;;;;;5.20;2.77;;;27.90;99.90;;;;;;5040035;28;21032;-76
2022/05/19 06:56:01;;;;;;;3.00;2.37;;;27.70;99.90;;;;;;5043206;28;20583;-76
2022/05/19 06:58:27;;;;;;;6.10;2.80;;;27.80;99.90;;;;;;5037922;28;20455;-77
2022/05/19 07:00:55;;;;;;;5.33;3.07;;;27.70;99.90;;;;;;5037938;28;20461;-76
2022/05/19 07:03:22;;;;;;;7.60;5.13;;;28.00;99.90;;;;;;5042609;28;20532;-77
2022/05/19 07:05:49;;;;;;;5.30;3.07;;;28.40;99.90;;;;;;5039252;28;20459;-76
2022/05/19 07:08:15;;;;;;;5.50;3.00;;;28.30;99.90;;;;;;5036432;28;20462;-77
2022/05/19 07:10:42;;;;;;;4.33;3.33;;;28.00;99.90;;;;;;5039418;28;20519;-77
2022/05/19 07:13:09;;;;;;;3.63;2.80;;;27.90;99.90;;;;;;5037255;28;20489;-77
2022/05/19 07:15:36;;;;;;;4.83;3.10;;;28.00;99.90;;;;;;5039697;28;20656;-77
2022/05/19 07:18:04;;;;;;;5.30;3.33;;;28.30;99.90;;;;;;5036974;28;20474;-77
2022/05/19 07:20:47;;;;;;;4.10;2.70;;;28.20;99.90;;;;;;5041576;28;20459;-77
2022/05/19 07:23:15;;;;;;;6.03;3.20;;;28.10;99.90;;;;;;5047977;28;20502;-77
2022/05/19 07:25:43;;;;;;;6.20;2.90;;;28.10;99.90;;;;;;5042547;28;20462;-77
2022/05/19 07:28:09;;;;;;;5.97;3.10;;;28.30;99.90;;;;;;5045517;28;20535;-77
2022/05/19 07:30:36;;;;;;;3.40;3.10;;;28.30;99.90;;;;;;5043213;28;20513;-75
2022/05/19 07:33:06;;;;;;;15.40;4.03;;;28.40;99.90;;;;;;5046587;28;20484;-75
2022/05/19 07:35:34;;;;;;;2.80;2.60;;;28.40;99.90;;;;;;5047270;28;20532;-75
2022/05/19 07:38:00;;;;;;;3.80;3.50;;;28.00;99.90;;;;;;5045727;28;20490;-77
2022/05/19 07:40:27;;;;;;;9.17;3.27;;;27.80;99.90;;;;;;5041781;28;20463;-77
2022/05/19 07:42:54;;;;;;;4.73;3.10;;;27.80;99.90;;;;;;5039634;28;20482;-76
2022/05/19 07:45:21;;;;;;;3.30;2.50;;;27.90;99.90;;;;;;5042869;28;20473;-76
2022/05/19 07:47:48;;;;;;;3.97;2.57;;;28.40;99.90;;;;;;5043844;28;20623;-76
2022/05/19 07:50:15;;;;;;;3.40;2.50;;;28.70;99.90;;;;;;5045451;28;20466;-76
2022/05/19 07:52:43;;;;;;;4.03;2.50;;;29.00;99.90;;;;;;5042202;28;21712;-76
2022/05/19 07:55:10;;;;;;;3.20;2.90;;;29.00;99.90;;;;;;5043562;28;20462;-76
2022/05/19 07:57:38;;;;;;;5.17;2.90;;;28.80;99.90;;;;;;5040331;28;20480;-76
2022/05/19 08:00:06;;;;;;;3.63;3.00;;;28.40;99.90;;;;;;5037182;28;20581;-76
2022/05/19 08:02:32;;;;;;;4.00;3.33;;;28.40;99.90;;;;;;5024619;28;21758;-76
2022/05/19 08:04:59;;;;;;;2.90;2.60;;;28.50;99.90;;;;;;5045830;28;20978;-76
2022/05/19 08:07:27;;;;;;;12.43;3.80;;;28.50;99.90;;;;;;5040799;28;20508;-76
2022/05/19 08:15:38;;;;;;;7.77;2.70;;;29.70;99.90;;;;;;5051723;22;20939;-72
2022/05/19 08:18:09;;;;;;;6.63;3.13;;;29.70;99.90;;;;;;5004114;28;20512;-72
2022/05/19 08:20:39;;;;;;;4.83;2.60;;;29.80;99.90;;;;;;5004329;28;20469;-73
2022/05/19 08:23:32;;;;;;;10.43;3.70;;;29.90;99.90;;;;;;5007316;28;20453;-72
2022/05/19 08:26:00;;;;;;;6.50;3.00;;;29.70;99.90;;;;;;4999117;28;20679;-72
2022/05/19 08:28:29;;;;;;;8.20;3.17;;;29.70;99.90;;;;;;4996970;28;20470;-73
2022/05/19 08:31:00;;;;;;;9.53;3.50;;;29.90;99.90;;;;;;4999079;28;20475;-73
2022/05/19 08:33:28;;;;;;;6.33;3.63;;;29.50;99.90;;;;;;5002903;28;20896;-73
2022/05/19 08:35:57;;;;;;;7.43;3.60;;;29.80;99.90;;;;;;4995515;28;20485;-72
2022/05/19 08:38:32;;;;;;;4.70;3.80;;;29.60;99.90;;;;;;4997959;28;20522;-73
2022/05/19 08:41:04;;;;;;;3.60;3.30;;;30.20;99.90;;;;;;5009960;28;20471;-73
2022/05/19 08:43:44;;;;;;;4.03;3.03;;;30.60;99.90;;;;;;4995420;28;21131;-73
2022/05/19 08:46:19;;;;;;;3.50;3.20;;;30.50;99.90;;;;;;4996893;28;20492;-73
2022/05/19 08:48:50;;;;;;;5.80;2.97;;;29.90;99.90;;;;;;4998537;28;20464;-72
2022/05/19 08:51:18;;;;;;;3.87;3.10;;;29.40;99.90;;;;;;5002860;28;21000;-72
2022/05/19 08:53:56;;;;;;;3.20;2.90;;;29.20;99.90;;;;;;5000671;28;20452;-73
2022/05/19 08:56:30;;;;;;;2.93;2.63;;;29.00;99.90;;;;;;5006856;28;20476;-73
2022/05/19 08:59:09;;;;;;;2.93;2.63;;;28.30;99.90;;;;;;4998685;28;20556;-73
2022/05/19 09:01:42;;;;;;;4.50;3.27;;;28.00;99.90;;;;;;4985402;28;20866;-72
2022/05/19 09:04:23;;;;;;;3.50;3.20;;;28.00;99.90;;;;;;5003140;28;20487;-72
2022/05/19 09:10:08;;;;;;;6.17;3.10;;;28.20;99.90;;;;;;4993033;28;20446;-73
2022/05/19 09:12:39;;;;;;;4.50;3.40;;;28.30;99.90;;;;;;4995512;28;20483;-72
2022/05/19 09:15:14;;;;;;;9.10;3.13;;;28.50;99.90;;;;;;4996359;28;20596;-73
2022/05/19 09:17:47;;;;;;;7.53;3.33;;;28.70;99.90;;;;;;5001532;28;20484;-72
2022/05/19 09:20:29;;;;;;;9.70;3.20;;;29.30;99.90;;;;;;4994015;28;20767;-73
2022/05/19 09:23:00;;;;;;;3.70;3.40;;;29.30;99.90;;;;;;5003372;28;20452;-72
2022/05/19 09:25:33;;;;;;;6.97;3.17;;;29.60;99.90;;;;;;5007767;28;20483;-72
2022/05/19 09:28:08;;;;;;;5.03;3.00;;;29.60;99.90;;;;;;4992279;28;20943;-73
2022/05/19 09:30:38;;;;;;;5.60;3.53;;;30.00;99.90;;;;;;4995749;28;20498;-73
2022/05/19 09:33:14;;;;;;;3.73;2.30;;;30.30;99.90;;;;;;4993183;28;20772;-73
2022/05/19 09:35:45;;;;;;;4.93;2.63;;;30.20;99.90;;;;;;4992541;28;20485;-72
2022/05/19 09:38:17;;;;;;;4.80;3.43;;;31.00;99.90;;;;;;4991899;28;20508;-72
2022/05/19 09:40:52;;;;;;;5.23;3.10;;;31.50;99.90;;;;;;4999890;28;20523;-72
2022/05/19 09:43:27;;;;;;;3.37;3.07;;;31.90;99.90;;;;;;5003929;28;20485;-73
2022/05/19 09:46:04;;;;;;;2.97;2.70;;;32.10;99.00;;;;;;4990269;28;20932;-72
2022/05/19 09:48:38;;;;;;;7.73;2.73;;;32.60;98.20;;;;;;4992856;28;21024;-72
2022/05/19 09:51:11;;;;;;;2.90;2.70;;;32.30;98.10;;;;;;4997366;28;20958;-73
2022/05/19 09:53:50;;;;;;;4.50;2.43;;;33.40;96.20;;;;;;4998153;28;20492;-73
2022/05/19 09:56:31;;;;;;;4.60;3.50;;;34.60;95.20;;;;;;4989317;28;20478;-73
2022/05/19 09:59:07;;;;;;;13.00;3.40;;;34.70;91.50;;;;;;4996553;28;20614;-76
2022/05/19 10:01:38;;;;;;;2.57;2.30;;;33.50;92.00;;;;;;4991867;28;20515;-73
2022/05/19 10:04:09;;;;;;;6.23;2.93;;;33.30;93.10;;;;;;4992397;28;20473;-73
2022/05/19 10:06:39;;;;;;;4.07;2.83;;;34.00;91.60;;;;;;4988547;28;20531;-73
2022/05/19 10:09:09;;;;;;;7.33;3.10;;;34.40;91.00;;;;;;4992462;28;21044;-72
2022/05/19 10:11:52;;;;;;;3.53;3.20;;;35.10;89.10;;;;;;4990915;28;20472;-72
2022/05/19 10:14:26;;;;;;;8.00;3.40;;;35.20;90.00;;;;;;4994424;28;20487;-72
2022/05/19 10:17:05;;;;;;;6.10;3.17;;;35.50;91.40;;;;;;4997202;28;20845;-72
2022/05/19 10:19:42;;;;;;;3.30;2.40;;;36.00;87.30;;;;;;4997742;28;20579;-73
2022/05/19 10:22:49;;;;;;;3.17;2.87;;;36.50;84.30;;;;;;4995361;28;20465;-72
2022/05/19 10:25:33;;;;;;;4.37;3.13;;;36.30;80.50;;;;;;4990183;28;20484;-73
2022/05/19 10:31:12;;;;;;;4.70;2.53;;;35.80;81.30;;;;;;4992834;28;20464;-73
2022/05/19 10:34:03;;;;;;;3.20;3.00;;;36.20;79.00;;;;;;5000813;28;20497;-73
2022/05/19 10:36:42;;;;;;;7.23;3.27;;;37.00;77.90;;;;;;4994687;28;20548;-72
2022/05/19 10:39:31;;;;;;;4.73;2.40;;;37.70;73.00;;;;;;4990120;28;20461;-72
2022/05/19 10:42:07;;;;;;;3.70;2.53;;;38.10;72.20;;;;;;5006223;28;20461;-72
2022/05/19 10:44:56;;;;;;;3.67;2.43;;;38.40;68.80;;;;;;5004819;28;20503;-72
2022/05/19 10:47:36;;;;;;;3.40;3.13;;;38.10;65.70;;;;;;4999675;28;20543;-71
2022/05/19 10:50:21;;;;;;;3.43;3.23;;;36.40;70.80;;;;;;4998129;28;20463;-72
2022/05/19 10:53:07;;;;;;;4.27;2.60;;;37.10;69.40;;;;;;4994162;28;20496;-73
2022/05/19 10:55:42;;;;;;;4.13;2.30;;;37.50;65.60;;;;;;4995612;28;20562;-73
2022/05/19 10:58:19;;;;;;;6.10;3.13;;;39.00;63.60;;;;;;4991075;28;20813;-73
2022/05/19 11:01:00;;;;;;;9.00;2.83;;;39.40;60.80;;;;;;4992751;28;20528;-74
2022/05/19 11:03:50;;;;;;;4.80;2.70;;;38.40;62.20;;;;;;5000869;28;20508;-72
2022/05/19 11:06:50;;;;;;;3.87;3.47;;;38.70;63.10;;;;;;4992102;28;20512;-73
2022/05/19 11:09:28;;;;;;;3.43;3.10;;;39.60;59.50;;;;;;4999405;28;20462;-72
2022/05/19 11:12:10;;;;;;;4.47;3.20;;;39.50;59.40;;;;;;4992730;28;20857;-73
2022/05/19 11:14:49;;;;;;;3.53;2.63;;;38.60;58.50;;;;;;4999406;28;20489;-73
2022/05/19 11:17:29;;;;;;;5.80;2.80;;;38.90;60.40;;;;;;5000474;28;20566;-74
2022/05/19 11:20:13;;;;;;;6.90;3.10;;;39.30;60.60;;;;;;4990160;28;20460;-73
2022/05/19 11:22:44;;;;;;;5.23;2.80;;;39.60;58.10;;;;;;4994833;28;21029;-73
2022/05/19 11:28:10;;;;;;;5.93;3.20;;;39.70;59.80;;;;;;4995074;28;20444;-73
2022/05/19 11:30:42;;;;;;;6.23;2.80;;;40.80;58.20;;;;;;4995777;28;21498;-72
2022/05/19 11:33:14;;;;;;;6.67;3.00;;;41.30;56.80;;;;;;5003959;28;20911;-73
2022/05/19 11:35:44;;;;;;;4.13;2.60;;;40.20;57.60;;;;;;4996091;28;20578;-73
2022/05/19 11:38:21;;;;;;;3.20;2.90;;;39.00;58.50;;;;;;4992843;28;20492;-72
2022/05/19 11:41:01;;;;;;;6.13;2.80;;;38.20;58.10;;;;;;4994613;28;20464;-73
2022/05/19 11:43:39;;;;;;;7.87;3.27;;;37.60;57.80;;;;;;4996988;28;20549;-74
2022/05/19 11:46:19;;;;;;;3.23;2.97;;;37.20;60.40;;;;;;4996657;28;20496;-73
2022/05/19 11:57:33;;;;;;;6.63;3.57;;;33.80;70.80;;;;;;5000509;28;21053;-73
2022/05/19 12:00:12;;;;;;;8.73;4.07;;;33.80;72.10;;;;;;5001677;28;20722;-73
2022/05/19 12:02:50;;;;;;;6.43;3.00;;;33.70;73.70;;;;;;5004475;28;20559;-73
2022/05/19 12:05:26;;;;;;;4.30;3.07;;;33.30;76.00;;;;;;4992755;28;20931;-72
2022/05/19 12:08:06;;;;;;;5.50;3.23;;;32.60;77.90;;;;;;4986953;28;20825;-73
2022/05/19 12:10:36;;;;;;;10.50;3.50;;;33.00;84.10;;;;;;4999675;28;20564;-73
2022/05/19 12:13:05;;;;;;;12.23;3.40;;;35.00;82.10;;;;;;5004593;28;20519;-73
2022/05/19 12:15:40;;;;;;;5.03;3.77;;;36.80;73.70;;;;;;4997401;28;20523;-73
2022/05/19 12:18:19;;;;;;;3.83;2.97;;;37.50;66.20;;;;;;4999391;28;20659;-73
2022/05/19 12:21:27;;;;;;;10.00;3.27;;;37.50;64.70;;;;;;4997676;28;20560;-73
2022/05/19 12:24:00;;;;;;;7.20;3.17;;;37.60;62.30;;;;;;4996372;28;20908;-72
2022/05/19 12:26:28;;;;;;;5.60;3.07;;;37.80;64.10;;;;;;4999328;28;20568;-72
2022/05/19 12:29:15;;;;;;;5.50;3.07;;;38.90;66.10;;;;;;4996501;28;20941;-71
2022/05/19 12:32:07;;;;;;;7.23;3.00;;;38.70;63.60;;;;;;4998810;28;20457;-74
2022/05/19 12:34:46;;;;;;;3.50;2.93;;;38.90;63.10;;;;;;4998835;28;20496;-74
2022/05/19 12:37:45;;;;;;;10.17;3.97;;;39.20;62.90;;;;;;4997760;28;20906;-74
2022/05/19 12:40:54;;;;;;;5.77;2.50;;;38.50;62.80;;;;;;4998002;28;20492;-73
2022/05/19 12:46:45;;;;;;;7.00;2.90;;;36.90;65.80;;;;;;4996717;28;20498;-73
2022/05/19 12:49:21;;;;;;;4.80;2.60;;;36.30;66.80;;;;;;4996118;28;20489;-73
2022/05/19 12:51:52;;;;;;;2.63;2.20;;;36.80;62.00;;;;;;4997883;28;20550;-74
2022/05/19 12:54:22;;;;;;;3.30;3.10;;;36.30;60.00;;;;;;4997278;28;20995;-72
2022/05/19 12:57:28;;;;;;;9.70;2.73;;;35.50;60.70;;;;;;4991332;28;20489;-72
2022/05/19 13:00:10;;;;;;;3.27;2.60;;;35.20;62.50;;;;;;4996955;28;20522;-73
2022/05/19 13:02:47;;;;;;;4.27;2.50;;;35.50;62.70;;;;;;4999495;28;20866;-74
2022/05/19 13:05:21;;;;;;;4.40;3.10;;;35.40;61.30;;;;;;4996786;28;20587;-73
2022/05/19 13:07:55;;;;;;;7.10;4.37;;;34.20;63.10;;;;;;4993703;28;20499;-74
2022/05/19 13:10:26;;;;;;;2.80;2.33;;;34.00;63.60;;;;;;4999077;28;20470;-73
2022/05/19 13:13:00;;;;;;;5.90;4.03;;;33.40;65.00;;;;;;4999151;28;20845;-73
2022/05/19 13:15:28;;;;;;;4.70;3.33;;;32.70;66.20;;;;;;4995741;28;20549;-73
2022/05/19 13:17:57;;;;;;;3.63;3.27;;;32.40;66.00;;;;;;4989455;28;20778;-74
2022/05/19 13:20:27;;;;;;;6.40;3.30;;;32.30;68.70;;;;;;5003472;28;20548;-73
2022/05/19 13:23:00;;;;;;;3.30;3.00;;;32.00;68.80;;;;;;5001018;28;20448;-73
2022/05/19 13:25:31;;;;;;;3.40;3.10;;;31.80;70.70;;;;;;4997594;28;20522;-73
2022/05/19 13:30:52;;;;;;;4.30;3.00;;;31.40;72.30;;;;;;4977918;28;20473;-72
2022/05/19 13:33:22;;;;;;;10.63;2.60;;;30.80;74.40;;;;;;4994779;28;20485;-72
2022/05/19 13:35:58;;;;;;;22.30;2.93;;;28.70;76.70;;;;;;4982730;28;20484;-74
2022/05/19 13:38:26;;;;;;;22.57;2.70;;;26.80;84.20;;;;;;4981406;28;20456;-71